createdAt,value
2023-01-17T00:02:39.378Z,69.64
2023-01-17T00:07:59.915Z,69.24
2023-01-17T00:13:03.662Z,68.97
2023-01-17T00:18:05.655Z,69.92
2023-01-17T00:23:27.170Z,70.22
2023-01-17T00:28:32.534Z,69.96
2023-01-17T00:33:34.965Z,69.88
2023-01-17T00:38:38.423Z,72.14
2023-01-17T00:44:00.488Z,72.47
2023-01-17T00:49:21.253Z,72.19
2023-01-17T00:54:42.193Z,72.76
2023-01-17T01:00:04.196Z,73.07
2023-01-17T01:05:25.611Z,72.87
2023-01-17T01:10:46.350Z,73.11
2023-01-17T01:16:08.360Z,72.97
2023-01-17T01:21:29.159Z,72.49
2023-01-17T01:26:49.815Z,72.62
2023-01-17T01:32:11.588Z,72.17
2023-01-17T01:37:13.531Z,73.67
2023-01-17T01:42:15.994Z,74.10
2023-01-17T01:47:24.023Z,73.19
2023-01-17T01:52:30.051Z,73.57
2023-01-17T01:57:37.901Z,73.62
2023-01-17T02:02:44.066Z,72.08
2023-01-17T02:07:50.901Z,71.99
2023-01-17T02:12:55.801Z,72.47
2023-01-17T02:18:09.942Z,72.85
2023-01-17T02:23:38.165Z,72.00
2023-01-17T02:28:57.322Z,72.17
2023-01-17T02:34:06.259Z,72.58
2023-01-17T02:39:14.942Z,73.16
2023-01-17T02:44:19.489Z,73.05
2023-01-17T02:49:26.980Z,72.95
2023-01-17T02:54:54.960Z,73.69
2023-01-17T03:00:06.476Z,74.36
2023-01-17T03:05:14.859Z,73.47
2023-01-17T03:10:19.080Z,74.16
2023-01-17T03:15:21.195Z,74.05
2023-01-17T03:20:24.449Z,74.92
2023-01-17T03:25:27.171Z,73.83
2023-01-17T03:30:29.133Z,74.26
2023-01-17T03:35:32.456Z,73.82
2023-01-17T03:40:34.403Z,73.68
2023-01-17T03:45:36.398Z,74.34
2023-01-17T03:50:39.734Z,74.47
2023-01-17T03:55:41.703Z,73.26
2023-01-17T04:00:43.655Z,73.38
2023-01-17T04:05:47.009Z,73.67
2023-01-17T04:10:48.963Z,71.98
2023-01-17T04:15:51.253Z,71.44
2023-01-17T04:20:54.526Z,69.92
2023-01-17T04:25:56.459Z,70.68
2023-01-17T04:30:59.251Z,70.52
2023-01-17T04:36:02.570Z,70.69
2023-01-17T04:41:04.862Z,69.85
2023-01-17T04:46:10.074Z,70.81
2023-01-17T04:51:14.082Z,70.38
2023-01-17T04:56:16.102Z,69.07
2023-01-17T05:01:18.231Z,72.23
2023-01-17T05:06:21.598Z,70.76
2023-01-17T05:11:23.592Z,69.36
2023-01-17T05:16:25.882Z,70.29
2023-01-17T05:21:30.490Z,69.81
2023-01-17T05:26:32.443Z,70.71
2023-01-17T05:31:34.375Z,70.97
2023-01-17T05:36:37.681Z,71.82
2023-01-17T05:41:39.820Z,71.21
2023-01-17T05:46:42.112Z,70.12
2023-01-17T05:51:45.376Z,71.50
2023-01-17T05:56:47.391Z,70.14
2023-01-17T06:01:49.318Z,70.01
2023-01-17T06:06:52.657Z,71.15
2023-01-17T06:11:54.597Z,72.42
2023-01-17T06:16:56.540Z,71.09
2023-01-17T06:21:59.896Z,71.43
2023-01-17T06:27:02.145Z,71.23
2023-01-17T06:32:04.571Z,71.34
2023-01-17T06:37:08.239Z,72.07
2023-01-17T06:42:10.274Z,70.30
2023-01-17T06:47:12.277Z,70.75
2023-01-17T06:52:15.600Z,70.18
2023-01-17T06:57:17.531Z,70.87
2023-01-17T07:02:19.751Z,71.23
2023-01-17T07:07:23.184Z,71.73
2023-01-17T07:12:25.140Z,70.22
2023-01-17T07:17:27.187Z,70.39
2023-01-17T07:22:30.609Z,71.68
2023-01-17T07:27:33.540Z,71.10
2023-01-17T07:32:35.678Z,72.62
2023-01-17T07:37:39.083Z,72.10
2023-01-17T07:42:41.023Z,70.89
2023-01-17T07:47:43.796Z,70.78
2023-01-17T07:52:50.381Z,70.77
2023-01-17T07:57:52.353Z,71.77
2023-01-17T08:02:56.300Z,71.62
2023-01-17T08:07:59.705Z,71.69
2023-01-17T08:13:01.732Z,69.13
2023-01-17T08:18:03.755Z,69.28
2023-01-17T08:23:07.031Z,69.92
2023-01-17T08:28:09.028Z,68.79
2023-01-17T08:33:11.091Z,69.11
2023-01-17T08:38:14.399Z,68.93
2023-01-17T08:43:16.736Z,67.49
2023-01-17T08:48:18.832Z,66.72
2023-01-17T08:53:23.261Z,66.43
2023-01-17T08:58:26.469Z,65.59
2023-01-17T09:03:28.437Z,63.43
2023-01-17T09:08:32.247Z,65.23
2023-01-17T09:13:34.246Z,66.51
2023-01-17T09:18:37.075Z,65.08
2023-01-17T09:23:40.990Z,64.69
2023-01-17T09:28:43.086Z,62.90
2023-01-17T09:33:45.038Z,62.87
2023-01-17T09:38:48.428Z,64.71
2023-01-17T09:43:54.417Z,63.44
2023-01-17T09:49:03.724Z,63.58
2023-01-17T09:54:20.374Z,64.59
2023-01-17T09:59:35.333Z,63.81
2023-01-17T10:04:52.327Z,64.62
2023-01-17T10:10:16.622Z,64.70
2023-01-17T10:15:34.727Z,63.42
2023-01-17T10:20:45.555Z,64.42
2023-01-17T10:25:50.350Z,63.14
2023-01-17T10:30:57.982Z,59.88
2023-01-17T10:36:05.994Z,61.45
2023-01-17T10:41:15.273Z,58.42
2023-01-17T10:46:22.565Z,60.78
2023-01-17T10:51:49.761Z,58.60
2023-01-17T10:56:53.082Z,58.57
2023-01-17T11:01:55.146Z,58.23
2023-01-17T11:07:12.570Z,59.58
2023-01-17T11:12:24.578Z,57.71
2023-01-17T11:17:27.855Z,57.81
2023-01-17T11:22:29.996Z,59.29
2023-01-17T11:27:35.275Z,58.25
2023-01-17T11:32:37.293Z,59.12
2023-01-17T11:37:48.600Z,57.36
2023-01-17T11:43:01.656Z,57.25
2023-01-17T11:48:12.325Z,55.41
2023-01-17T11:53:19.554Z,55.61
2023-01-17T11:58:24.099Z,58.35
2023-01-17T12:03:50.246Z,57.86
2023-01-17T12:09:07.988Z,59.48
2023-01-17T12:14:21.811Z,59.03
2023-01-17T12:19:38.852Z,61.70
2023-01-17T12:24:56.854Z,59.16
2023-01-17T12:30:18.895Z,58.81
2023-01-17T12:35:27.950Z,61.17
2023-01-17T12:40:32.851Z,60.02
2023-01-17T12:45:42.539Z,60.15
2023-01-17T12:50:51.882Z,60.44
2023-01-17T12:56:00.332Z,59.62
2023-01-17T13:01:12.434Z,61.27
2023-01-17T13:06:22.389Z,61.70
2023-01-17T13:11:28.258Z,61.86
2023-01-17T13:16:37.739Z,61.97
2023-01-17T13:21:40.944Z,61.58
2023-01-17T13:26:57.394Z,63.08
2023-01-17T13:32:14.994Z,64.62
2023-01-17T13:37:42.206Z,64.86
2023-01-17T13:42:54.018Z,63.24
2023-01-17T13:48:31.681Z,63.80
2023-01-17T13:53:54.966Z,64.89
2023-01-17T13:59:05.484Z,64.28
2023-01-17T14:04:09.943Z,65.59
2023-01-17T14:09:18.483Z,66.10
2023-01-17T14:14:47.716Z,65.96
2023-01-17T14:19:53.060Z,65.77
2023-01-17T14:25:01.586Z,66.77
2023-01-17T14:30:06.995Z,64.87
2023-01-17T14:35:21.831Z,65.04
2023-01-17T14:40:26.503Z,65.38
2023-01-17T14:45:30.608Z,64.10
2023-01-17T14:50:38.305Z,64.63
2023-01-17T14:55:49.976Z,64.87
2023-01-17T15:00:56.069Z,65.18
2023-01-17T15:06:10.673Z,66.27
2023-01-17T15:11:18.195Z,66.00
2023-01-17T15:16:23.458Z,66.29
2023-01-17T15:21:29.578Z,66.21
2023-01-17T15:26:34.491Z,68.06
2023-01-17T15:31:42.140Z,67.27
2023-01-17T15:36:48.730Z,68.35
2023-01-17T15:41:52.196Z,69.58
2023-01-17T15:46:55.083Z,69.79
2023-01-17T15:52:15.001Z,70.51
2023-01-17T15:57:24.248Z,70.37
2023-01-17T16:02:42.914Z,71.16
2023-01-17T16:07:48.152Z,70.33
2023-01-17T16:12:52.819Z,67.55
2023-01-17T16:17:57.452Z,66.53
2023-01-17T16:23:00.801Z,67.74
2023-01-17T16:28:03.494Z,67.76
2023-01-17T16:33:05.650Z,70.87
2023-01-17T16:38:15.899Z,73.01
2023-01-17T16:43:19.775Z,73.67
2023-01-17T16:48:21.776Z,74.74
2023-01-17T16:53:28.441Z,75.25
2023-01-17T16:58:32.196Z,76.45
2023-01-17T17:03:35.359Z,75.66
2023-01-17T17:08:39.729Z,75.76
2023-01-17T17:13:43.292Z,76.27
2023-01-17T17:18:47.133Z,73.73
2023-01-17T17:23:56.712Z,74.86
2023-01-17T17:28:58.829Z,75.29
2023-01-17T17:34:02.022Z,76.40
2023-01-17T17:39:09.218Z,76.25
2023-01-17T17:44:12.050Z,76.10
2023-01-17T17:49:16.850Z,77.19
2023-01-17T17:54:20.519Z,79.28
2023-01-17T17:59:23.890Z,79.33
2023-01-17T18:04:26.242Z,78.91
2023-01-17T18:09:29.764Z,79.50
2023-01-17T18:14:32.283Z,77.90
2023-01-17T18:19:34.352Z,79.01
2023-01-17T18:24:37.939Z,76.86
2023-01-17T18:29:39.965Z,75.91
2023-01-17T18:34:42.339Z,77.73
2023-01-17T18:39:45.742Z,77.24
2023-01-17T18:44:47.898Z,76.88
2023-01-17T18:49:53.709Z,76.04
2023-01-17T18:54:57.143Z,76.17
2023-01-17T18:59:59.214Z,73.12
2023-01-17T19:05:05.432Z,72.82
2023-01-17T19:10:09.971Z,72.49
2023-01-17T19:15:11.919Z,74.85
2023-01-17T19:20:14.077Z,72.57
2023-01-17T19:25:17.520Z,74.22
2023-01-17T19:30:20.830Z,74.82
2023-01-17T19:35:23.077Z,71.99
2023-01-17T19:40:26.903Z,73.50
2023-01-17T19:45:29.194Z,73.25
2023-01-17T19:50:31.291Z,71.59
2023-01-17T19:55:38.879Z,72.97
2023-01-17T20:00:46.544Z,69.76
2023-01-17T20:05:55.748Z,68.33
2023-01-17T20:11:02.262Z,67.57
2023-01-17T20:16:06.461Z,67.29
2023-01-17T20:21:10.244Z,68.14
2023-01-17T20:26:13.849Z,67.23
2023-01-17T20:31:18.288Z,66.11
2023-01-17T20:36:22.612Z,66.81
2023-01-17T20:41:30.094Z,66.96
2023-01-17T20:46:35.519Z,68.76
2023-01-17T20:51:38.426Z,68.74
2023-01-17T20:56:42.695Z,69.26
2023-01-17T21:01:45.147Z,68.74
2023-01-17T21:06:47.469Z,68.86
2023-01-17T21:11:51.799Z,67.71
2023-01-17T21:16:53.898Z,68.55
2023-01-17T21:21:57.223Z,69.49
2023-01-17T21:27:00.578Z,69.23
2023-01-17T21:32:02.582Z,69.33
2023-01-17T21:37:04.586Z,69.53
2023-01-17T21:42:08.378Z,69.77
2023-01-17T21:47:10.360Z,70.54
2023-01-17T21:52:12.357Z,71.70
2023-01-17T21:57:36.565Z,72.36
2023-01-17T22:02:39.741Z,72.06
2023-01-17T22:08:03.410Z,72.93
2023-01-17T22:13:06.724Z,74.80
2023-01-17T22:18:09.607Z,76.91
2023-01-17T22:23:11.954Z,78.63
2023-01-17T22:28:15.330Z,78.75
2023-01-17T22:33:17.290Z,79.72
2023-01-17T22:38:19.224Z,81.57
2023-01-17T22:43:22.506Z,82.41
2023-01-17T22:48:24.541Z,82.35
2023-01-17T22:53:26.705Z,83.16
2023-01-17T22:58:31.161Z,84.16
2023-01-17T23:03:33.520Z,84.17
2023-01-17T23:08:36.028Z,84.14
2023-01-17T23:13:39.312Z,84.12
2023-01-17T23:18:59.513Z,84.52
2023-01-17T23:24:02.581Z,85.81
2023-01-17T23:29:05.905Z,87.01
2023-01-17T23:34:07.861Z,87.28
2023-01-17T23:39:10.249Z,86.88
2023-01-17T23:44:13.874Z,87.69
2023-01-17T23:49:15.918Z,87.75
2023-01-17T23:54:17.850Z,88.27
2023-01-17T23:59:21.217Z,88.06
